createdAt,value
2019-05-19T00:00:33.047Z,98286.69
2019-05-19T00:03:03.292Z,98287.66
2019-05-19T00:05:31.140Z,98286.89
2019-05-19T00:07:59.002Z,98290.12
2019-05-19T00:10:26.841Z,98280.06
2019-05-19T00:12:54.718Z,98285.40
2019-05-19T00:15:22.624Z,98285.05
2019-05-19T00:17:50.486Z,98287.39
2019-05-19T00:20:19.060Z,98281.38
2019-05-19T00:22:47.115Z,98285.68
2019-05-19T00:25:14.914Z,98286.50
2019-05-19T00:27:42.782Z,98282.20
2019-05-19T00:30:10.766Z,98279.27
2019-05-19T00:32:38.857Z,98272.80
2019-05-19T00:35:07.317Z,98269.81
2019-05-19T00:37:35.214Z,98275.44
2019-05-19T00:40:03.525Z,98274.27
2019-05-19T00:42:31.679Z,98272.11
2019-05-19T00:44:59.445Z,98272.50
2019-05-19T00:47:27.243Z,98265.03
2019-05-19T00:49:55.011Z,98265.72
2019-05-19T00:52:23.042Z,98268.61
2019-05-19T00:54:50.837Z,98263.64
2019-05-19T00:57:19.343Z,98268.32
2019-05-19T00:59:47.862Z,98263.33
2019-05-19T01:02:15.736Z,98265.19
2019-05-19T01:04:43.528Z,98261.09
2019-05-19T01:07:11.335Z,98256.05
2019-05-19T01:09:39.372Z,98257.27
2019-05-19T01:12:07.311Z,98255.89
2019-05-19T01:14:35.148Z,98253.16
2019-05-19T01:17:03.057Z,98253.25
2019-05-19T01:19:30.820Z,98248.11
2019-05-19T01:22:01.172Z,98246.38
2019-05-19T01:24:28.950Z,98242.83
2019-05-19T01:26:57.017Z,98247.25
2019-05-19T01:29:24.848Z,98244.66
2019-05-19T01:31:52.618Z,98246.57
2019-05-19T01:34:20.391Z,98248.92
2019-05-19T01:36:48.221Z,98250.25
2019-05-19T01:39:15.985Z,98248.59
2019-05-19T01:41:43.764Z,98245.17
2019-05-19T01:44:11.726Z,98246.28
2019-05-19T01:46:39.574Z,98242.16
2019-05-19T01:49:07.356Z,98238.11
2019-05-19T01:51:35.214Z,98238.60
2019-05-19T01:54:02.981Z,98244.19
2019-05-19T01:56:30.809Z,98237.95
2019-05-19T01:58:58.593Z,98240.50
2019-05-19T02:01:26.396Z,98247.09
2019-05-19T02:03:54.285Z,98239.33
2019-05-19T02:06:22.069Z,98234.72
2019-05-19T02:08:50.026Z,98230.67
2019-05-19T02:11:17.859Z,98236.00
2019-05-19T02:13:55.849Z,98237.37
2019-05-19T02:16:23.645Z,98236.92
2019-05-19T02:18:51.419Z,98236.18
2019-05-19T02:21:19.205Z,98242.67
2019-05-19T02:23:47.153Z,98241.19
2019-05-19T02:26:14.994Z,98238.77
2019-05-19T02:28:42.815Z,98237.66
2019-05-19T02:31:10.624Z,98233.25
2019-05-19T02:33:38.521Z,98240.44
2019-05-19T02:36:06.261Z,98236.98
2019-05-19T02:38:34.052Z,98237.25
2019-05-19T02:41:04.267Z,98239.41
2019-05-19T02:43:33.807Z,98235.70
2019-05-19T02:46:03.204Z,98233.06
2019-05-19T02:48:32.570Z,98233.14
2019-05-19T02:51:03.383Z,98229.14
2019-05-19T02:53:32.754Z,98231.45
2019-05-19T02:56:03.227Z,98233.97
2019-05-19T02:58:31.906Z,98230.42
2019-05-19T03:00:59.743Z,98228.14
2019-05-19T03:03:27.467Z,98232.11
2019-05-19T03:05:55.247Z,98227.61
2019-05-19T03:08:23.022Z,98235.02
2019-05-19T03:10:50.838Z,98232.64
2019-05-19T03:13:24.594Z,98236.70
2019-05-19T03:15:52.396Z,98239.77
2019-05-19T03:18:21.335Z,98239.77
2019-05-19T03:20:49.193Z,98240.13
2019-05-19T03:23:17.215Z,98241.16
2019-05-19T03:25:45.017Z,98244.79
2019-05-19T03:28:15.282Z,98244.83
2019-05-19T03:31:11.663Z,98246.93
2019-05-19T03:33:41.745Z,98249.95
2019-05-19T03:36:09.922Z,98251.72
2019-05-19T03:38:37.682Z,98251.66
2019-05-19T03:41:05.488Z,98255.00
2019-05-19T03:43:33.425Z,98250.34
2019-05-19T03:46:01.216Z,98254.80
2019-05-19T03:48:29.010Z,98253.48
2019-05-19T03:50:56.816Z,98252.95
2019-05-19T03:53:25.086Z,98253.64
2019-05-19T03:55:52.847Z,98250.84
2019-05-19T03:58:20.707Z,98253.14
2019-05-19T04:00:48.495Z,98256.53
2019-05-19T04:03:16.431Z,98255.28
2019-05-19T04:05:44.491Z,98260.64
2019-05-19T04:08:12.251Z,98256.04
2019-05-19T04:10:40.084Z,98259.34
2019-05-19T04:13:07.817Z,98231.20
2019-05-19T04:15:35.671Z,98262.03
2019-05-19T04:18:03.464Z,98261.96
2019-05-19T04:20:31.291Z,98260.94
2019-05-19T04:22:59.430Z,98258.58
2019-05-19T04:25:27.247Z,98257.30
2019-05-19T04:27:55.024Z,98261.26
2019-05-19T04:30:22.800Z,98257.66
2019-05-19T04:32:50.560Z,98260.47
2019-05-19T04:35:20.254Z,98264.51
2019-05-19T04:37:48.083Z,98263.09
2019-05-19T04:40:16.031Z,98257.23
2019-05-19T04:42:45.858Z,98259.48
2019-05-19T04:45:13.754Z,98265.67
2019-05-19T04:47:41.509Z,98265.86
2019-05-19T04:50:11.517Z,98266.70
2019-05-19T04:52:39.396Z,98267.50
2019-05-19T04:55:07.404Z,98265.65
2019-05-19T04:57:35.759Z,98270.26
2019-05-19T05:00:04.216Z,98265.24
2019-05-19T05:02:51.471Z,98264.27
2019-05-19T05:05:20.550Z,98261.47
2019-05-19T05:07:48.343Z,98264.03
2019-05-19T05:10:16.801Z,98258.05
2019-05-19T05:12:44.873Z,98250.11
2019-05-19T05:15:12.849Z,98256.06
2019-05-19T05:17:40.661Z,98256.80
2019-05-19T05:20:09.598Z,98251.87
2019-05-19T05:22:37.461Z,98248.63
2019-05-19T05:25:05.418Z,98247.58
2019-05-19T05:27:33.215Z,98248.61
2019-05-19T05:30:03.031Z,98252.94
2019-05-19T05:32:30.781Z,98260.42
2019-05-19T05:34:58.534Z,98274.16
2019-05-19T05:37:45.794Z,98267.39
2019-05-19T05:40:13.580Z,98274.98
2019-05-19T05:42:41.409Z,98262.19
2019-05-19T05:45:09.687Z,98252.28
2019-05-19T05:47:56.937Z,98256.95
2019-05-19T05:50:24.748Z,98260.47
2019-05-19T05:52:52.725Z,98254.22
2019-05-19T05:55:20.500Z,98243.96
2019-05-19T05:57:48.318Z,98237.42
2019-05-19T06:00:17.580Z,98227.59
2019-05-19T06:02:45.371Z,98226.73
2019-05-19T06:05:13.179Z,98222.77
2019-05-19T06:07:41.096Z,98221.84
2019-05-19T06:10:09.006Z,98221.97
2019-05-19T06:12:36.852Z,98225.42
2019-05-19T06:15:04.958Z,98230.73
2019-05-19T06:17:32.798Z,98225.74
2019-05-19T06:20:00.621Z,98223.94
2019-05-19T06:22:28.447Z,98218.91
2019-05-19T06:24:58.960Z,98218.47
2019-05-19T06:27:25.949Z,98222.27
2019-05-19T06:29:53.704Z,98219.29
2019-05-19T06:32:33.675Z,98218.28
2019-05-19T06:35:01.467Z,98213.13
2019-05-19T06:37:29.230Z,98211.77
2019-05-19T06:39:57.022Z,98215.81
2019-05-19T06:42:24.880Z,98216.27
2019-05-19T06:44:52.727Z,98207.12
2019-05-19T06:47:20.548Z,98208.97
2019-05-19T06:49:48.297Z,98202.47
2019-05-19T06:52:16.143Z,98202.70
2019-05-19T06:54:43.910Z,98200.61
2019-05-19T06:57:11.754Z,98193.53
2019-05-19T06:59:39.511Z,98201.16
2019-05-19T07:02:07.331Z,98199.34
2019-05-19T07:04:35.125Z,98192.52
2019-05-19T07:07:02.985Z,98185.62
2019-05-19T07:09:30.910Z,98188.56
2019-05-19T07:11:58.767Z,98189.58
2019-05-19T07:14:26.682Z,98189.52
2019-05-19T07:16:54.762Z,98186.80
2019-05-19T07:19:22.593Z,98188.70
2019-05-19T07:21:50.352Z,98186.80
2019-05-19T07:24:18.212Z,98181.30
2019-05-19T07:26:45.965Z,98176.78
2019-05-19T07:29:13.757Z,98173.04
2019-05-19T07:31:44.418Z,98177.60
2019-05-19T07:34:12.276Z,98172.78
2019-05-19T07:36:40.045Z,98172.29
2019-05-19T07:39:07.973Z,98170.12
2019-05-19T07:41:35.716Z,98172.63
2019-05-19T07:44:03.705Z,98170.06
2019-05-19T07:46:31.528Z,98176.97
2019-05-19T07:48:59.289Z,98178.64
2019-05-19T07:51:27.082Z,98178.36
2019-05-19T07:53:55.045Z,98173.44
2019-05-19T07:56:23.144Z,98170.32
2019-05-19T07:58:50.961Z,98163.25
2019-05-19T08:01:18.720Z,98165.52
2019-05-19T08:03:46.511Z,98160.64
2019-05-19T08:06:14.299Z,98156.09
2019-05-19T08:08:42.154Z,98160.63
2019-05-19T08:11:09.915Z,98153.91
2019-05-19T08:13:40.072Z,98153.19
2019-05-19T08:16:07.900Z,98152.39
2019-05-19T08:18:35.704Z,98156.23
2019-05-19T08:21:03.568Z,98154.47
2019-05-19T08:23:31.303Z,98154.41
2019-05-19T08:25:59.086Z,98151.64
2019-05-19T08:28:27.016Z,98149.11
2019-05-19T08:30:54.801Z,98148.22
2019-05-19T08:33:22.635Z,98147.77
2019-05-19T08:35:50.426Z,98145.02
2019-05-19T08:38:18.307Z,98144.73
2019-05-19T08:40:46.096Z,98144.34
2019-05-19T08:43:14.011Z,98141.59
2019-05-19T08:45:42.146Z,98138.98
2019-05-19T08:48:10.414Z,98138.66
2019-05-19T08:50:38.252Z,98133.12
2019-05-19T08:53:06.239Z,98132.81
2019-05-19T08:55:34.113Z,98123.77
2019-05-19T08:58:02.119Z,98123.30
2019-05-19T09:00:30.329Z,98129.07
2019-05-19T09:02:58.211Z,98130.25
2019-05-19T09:05:26.381Z,98124.88
2019-05-19T09:07:54.198Z,98107.94
2019-05-19T09:10:21.999Z,98116.20
2019-05-19T09:12:49.946Z,98110.30
2019-05-19T09:15:17.757Z,98104.45
2019-05-19T09:17:45.582Z,98105.50
2019-05-19T09:20:13.558Z,98101.59
2019-05-19T09:22:41.377Z,98108.73
2019-05-19T09:25:09.186Z,98109.76
2019-05-19T09:27:36.990Z,98102.90
2019-05-19T09:30:06.239Z,98107.09
2019-05-19T09:32:34.169Z,98102.24
2019-05-19T09:35:01.980Z,98091.98
2019-05-19T09:37:29.756Z,98110.87
2019-05-19T09:39:57.574Z,98094.02
2019-05-19T09:42:25.378Z,98100.66
2019-05-19T09:44:53.235Z,98099.58
2019-05-19T09:47:21.002Z,98096.73
2019-05-19T09:49:49.064Z,98089.54
2019-05-19T09:52:19.988Z,98077.80
2019-05-19T09:54:47.808Z,98077.20
2019-05-19T09:57:15.568Z,98071.95
2019-05-19T09:59:43.430Z,98070.64
2019-05-19T10:02:11.246Z,98076.02
2019-05-19T10:04:39.067Z,98069.90
2019-05-19T10:07:07.642Z,98080.69
2019-05-19T10:10:32.057Z,98093.64
2019-05-19T10:13:00.154Z,98088.64
2019-05-19T10:15:28.084Z,98087.03
2019-05-19T10:17:55.971Z,98070.30
2019-05-19T10:20:23.813Z,98058.91
2019-05-19T10:22:51.825Z,98049.72
2019-05-19T10:25:22.316Z,98049.61
2019-05-19T10:27:49.361Z,98062.33
2019-05-19T10:30:17.308Z,98067.32
2019-05-19T10:32:45.341Z,98065.88
2019-05-19T10:35:13.210Z,98062.56
2019-05-19T10:37:41.007Z,98058.88
2019-05-19T10:40:08.913Z,98049.58
2019-05-19T10:42:36.759Z,98056.36
2019-05-19T10:45:06.634Z,98047.03
2019-05-19T10:47:34.410Z,98043.17
2019-05-19T10:50:02.222Z,98039.97
2019-05-19T10:52:35.193Z,98036.10
2019-05-19T10:55:03.291Z,98031.39
2019-05-19T10:57:31.333Z,98034.72
2019-05-19T10:59:59.103Z,98035.33
2019-05-19T11:02:26.930Z,98034.29
2019-05-19T11:04:54.720Z,98027.20
2019-05-19T11:07:22.535Z,98024.17
2019-05-19T11:09:50.456Z,98027.25
2019-05-19T11:12:18.256Z,98022.23
2019-05-19T11:14:46.015Z,98020.39
2019-05-19T11:17:13.829Z,98018.81
2019-05-19T11:19:41.683Z,98028.33
2019-05-19T11:22:09.479Z,98029.04
2019-05-19T11:24:37.301Z,98022.78
2019-05-19T11:27:05.134Z,98022.34
2019-05-19T11:29:32.876Z,98021.88
2019-05-19T11:32:00.720Z,98013.30
2019-05-19T11:34:28.535Z,98004.80
2019-05-19T11:36:57.466Z,98015.47
2019-05-19T11:39:25.262Z,98020.75
2019-05-19T11:41:53.102Z,98020.22
2019-05-19T11:44:21.411Z,98021.36
2019-05-19T11:46:49.212Z,98021.68
2019-05-19T11:49:17.030Z,98009.20
2019-05-19T11:51:44.868Z,98025.34
2019-05-19T11:54:12.635Z,98015.42
2019-05-19T11:56:40.467Z,98011.42
2019-05-19T11:59:08.267Z,98006.24
2019-05-19T12:01:36.115Z,98004.52
2019-05-19T12:04:04.133Z,97998.67
2019-05-19T12:06:39.379Z,98009.06
2019-05-19T12:09:01.705Z,98007.34
2019-05-19T12:11:30.240Z,98008.77
2019-05-19T12:13:58.293Z,98003.53
2019-05-19T12:16:27.479Z,97995.91
2019-05-19T12:18:57.420Z,97998.72
2019-05-19T12:21:26.467Z,97992.30
2019-05-19T12:23:54.462Z,97981.92
2019-05-19T12:26:23.716Z,97982.12
2019-05-19T12:28:51.947Z,97976.02
2019-05-19T12:31:19.797Z,97976.55
2019-05-19T12:33:52.148Z,97972.09
2019-05-19T12:36:17.528Z,97973.58
2019-05-19T12:38:45.549Z,97977.47
2019-05-19T12:41:13.331Z,97974.60
2019-05-19T12:43:41.275Z,97974.42
2019-05-19T12:46:16.064Z,97968.70
2019-05-19T12:48:38.853Z,97968.39
2019-05-19T12:51:06.700Z,97963.41
2019-05-19T12:53:34.735Z,97960.20
2019-05-19T12:56:02.588Z,97953.30
2019-05-19T12:58:30.349Z,97955.44
2019-05-19T13:00:58.672Z,97953.16
2019-05-19T13:03:26.674Z,97953.00
2019-05-19T13:05:54.456Z,97952.59
2019-05-19T13:08:22.265Z,97949.67
2019-05-19T13:10:50.021Z,97950.98
2019-05-19T13:13:17.832Z,97952.03
2019-05-19T13:15:45.593Z,97942.99
2019-05-19T13:18:14.611Z,97945.67
2019-05-19T13:20:42.451Z,97946.02
2019-05-19T13:23:10.178Z,97942.77
2019-05-19T13:25:37.996Z,97939.95
2019-05-19T13:28:05.781Z,97942.15
2019-05-19T13:30:33.541Z,97933.89
2019-05-19T13:33:01.344Z,97933.74
2019-05-19T13:35:29.134Z,97931.37
2019-05-19T13:37:57.005Z,97936.37
2019-05-19T13:40:24.798Z,97931.59
2019-05-19T13:42:52.755Z,97929.28
2019-05-19T13:45:21.002Z,97925.86
2019-05-19T13:47:48.845Z,97926.81
2019-05-19T13:50:16.770Z,97917.98
2019-05-19T13:52:44.587Z,97910.30
2019-05-19T13:55:12.828Z,97919.80
2019-05-19T13:57:40.622Z,97895.59
2019-05-19T14:00:08.930Z,97925.02
2019-05-19T14:02:37.108Z,97923.39
2019-05-19T14:05:05.583Z,97910.19
2019-05-19T14:07:34.038Z,97910.11
2019-05-19T14:10:02.223Z,97911.44
2019-05-19T14:12:30.211Z,97912.99
2019-05-19T14:14:58.113Z,97918.06
2019-05-19T14:17:26.084Z,97915.54
2019-05-19T14:19:53.934Z,97921.01
2019-05-19T14:22:24.423Z,97919.99
2019-05-19T14:24:52.206Z,97917.43
2019-05-19T14:27:29.568Z,97912.91
2019-05-19T14:29:49.682Z,97910.92
2019-05-19T14:32:17.607Z,97915.14
2019-05-19T14:34:45.457Z,97912.42
2019-05-19T14:37:13.274Z,97909.79
2019-05-19T14:39:41.117Z,97908.78
2019-05-19T14:42:13.533Z,97906.92
2019-05-19T14:44:41.261Z,97903.34
2019-05-19T14:47:09.115Z,97904.09
2019-05-19T14:49:36.875Z,97902.78
2019-05-19T14:52:04.719Z,97901.00
2019-05-19T14:54:32.503Z,97900.05
2019-05-19T14:57:00.344Z,97897.91
2019-05-19T14:59:28.348Z,97898.19
2019-05-19T15:01:56.386Z,97900.19
2019-05-19T15:04:24.196Z,97893.71
2019-05-19T15:06:54.588Z,97893.41
2019-05-19T15:09:22.419Z,97890.59
2019-05-19T15:11:50.229Z,97887.59
2019-05-19T15:14:18.010Z,97882.54
2019-05-19T15:16:45.885Z,97880.00
2019-05-19T15:19:13.761Z,97883.14
2019-05-19T15:21:41.706Z,97885.97
2019-05-19T15:24:09.522Z,97888.44
2019-05-19T15:26:37.352Z,97897.05
2019-05-19T15:29:05.151Z,97896.41
2019-05-19T15:31:32.944Z,97903.54
2019-05-19T15:34:00.787Z,97910.98
2019-05-19T15:36:28.606Z,97920.99
2019-05-19T15:38:56.455Z,97924.32
2019-05-19T15:41:24.281Z,97931.16
2019-05-19T15:43:52.259Z,97936.40
2019-05-19T15:46:20.056Z,97935.34
2019-05-19T15:48:47.920Z,97933.30
2019-05-19T15:51:27.507Z,97933.63
2019-05-19T15:53:45.480Z,97942.69
2019-05-19T15:56:13.299Z,97943.16
2019-05-19T15:58:41.406Z,97957.64
2019-05-19T16:01:09.156Z,97953.13
2019-05-19T16:03:37.107Z,97953.97
2019-05-19T16:06:04.906Z,97963.61
2019-05-19T16:08:32.707Z,97965.99
2019-05-19T16:11:00.572Z,97975.72
2019-05-19T16:13:28.801Z,97980.09
2019-05-19T16:15:56.710Z,97981.09
2019-05-19T16:18:24.505Z,97983.16
2019-05-19T16:20:52.372Z,97989.48
2019-05-19T16:23:20.463Z,97989.49
2019-05-19T16:25:48.285Z,97994.09
2019-05-19T16:28:29.626Z,97992.45
2019-05-19T16:30:46.310Z,97985.78
2019-05-19T16:33:14.119Z,97990.17
2019-05-19T16:35:41.894Z,97998.77
2019-05-19T16:38:09.692Z,97999.66
2019-05-19T16:40:37.494Z,98013.35
2019-05-19T16:43:05.288Z,98015.92
2019-05-19T16:45:33.172Z,98021.12
2019-05-19T16:48:01.045Z,98021.76
2019-05-19T16:50:29.212Z,98014.97
2019-05-19T16:52:56.982Z,98016.09
2019-05-19T16:55:26.716Z,98013.00
2019-05-19T16:57:54.475Z,98016.39
2019-05-19T17:00:23.301Z,97995.57
2019-05-19T17:02:51.046Z,98008.38
2019-05-19T17:05:18.893Z,98010.09
2019-05-19T17:07:46.719Z,98011.33
2019-05-19T17:10:14.690Z,98016.73
2019-05-19T17:12:42.548Z,98013.13
2019-05-19T17:15:10.623Z,98008.68
2019-05-19T17:17:38.496Z,98010.73
2019-05-19T17:20:06.809Z,98000.50
2019-05-19T17:22:35.178Z,97999.02
2019-05-19T17:25:03.055Z,97995.52
2019-05-19T17:27:30.878Z,97995.61
2019-05-19T17:29:58.754Z,97997.56
2019-05-19T17:32:26.549Z,98008.16
2019-05-19T17:34:54.407Z,98008.16
2019-05-19T17:37:22.263Z,98006.89
2019-05-19T17:39:50.145Z,98007.75
2019-05-19T17:42:23.103Z,98012.32
2019-05-19T17:44:50.887Z,98015.16
2019-05-19T17:47:18.799Z,98011.03
2019-05-19T17:49:46.849Z,98011.65
2019-05-19T17:52:15.354Z,98014.08
2019-05-19T17:54:43.390Z,98009.89
2019-05-19T17:57:11.254Z,98008.14
2019-05-19T17:59:44.593Z,98009.22
2019-05-19T18:02:12.800Z,98007.59
2019-05-19T18:04:40.988Z,98008.72
2019-05-19T18:07:08.809Z,98010.54
2019-05-19T18:09:36.631Z,98008.57
2019-05-19T18:12:04.581Z,98010.75
2019-05-19T18:14:32.494Z,98010.60
2019-05-19T18:17:00.337Z,98015.14
2019-05-19T18:19:28.194Z,98026.00
2019-05-19T18:21:56.749Z,98028.92
2019-05-19T18:24:24.796Z,98038.27
2019-05-19T18:26:52.837Z,98042.55
2019-05-19T18:29:30.870Z,98043.58
2019-05-19T18:31:56.437Z,98040.56
2019-05-19T18:34:24.535Z,98046.02
2019-05-19T18:36:52.379Z,98046.34
2019-05-19T18:39:20.296Z,98055.67
2019-05-19T18:41:55.364Z,98052.45
2019-05-19T18:44:23.229Z,98047.07
2019-05-19T18:46:51.190Z,98051.08
2019-05-19T18:49:19.219Z,98048.95
2019-05-19T18:51:47.208Z,98053.23
2019-05-19T18:54:15.118Z,98052.30
2019-05-19T18:56:43.164Z,98048.20
2019-05-19T18:59:11.481Z,98053.64
2019-05-19T19:01:39.527Z,98060.91
2019-05-19T19:04:07.361Z,98059.88
2019-05-19T19:06:35.200Z,98061.67
2019-05-19T19:09:04.007Z,98060.50
2019-05-19T19:11:31.852Z,98058.98
2019-05-19T19:13:59.747Z,98060.31
2019-05-19T19:16:28.268Z,98061.70
2019-05-19T19:18:59.203Z,98066.16
2019-05-19T19:21:27.623Z,98070.34
2019-05-19T19:23:56.223Z,98068.14
2019-05-19T19:26:26.483Z,98078.44
2019-05-19T19:29:00.471Z,98079.86
2019-05-19T19:31:31.536Z,98078.41
2019-05-19T19:34:02.740Z,98078.11
2019-05-19T19:36:36.697Z,97973.27
2019-05-19T19:39:05.973Z,98080.63
2019-05-19T19:41:34.120Z,98076.09
2019-05-19T19:44:02.298Z,98081.56
2019-05-19T19:46:30.166Z,98078.63
2019-05-19T19:48:57.968Z,98075.99
2019-05-19T19:51:25.829Z,98083.45
2019-05-19T19:53:53.642Z,98083.00
2019-05-19T19:56:21.449Z,98063.99
2019-05-19T19:58:49.385Z,98085.81
2019-05-19T20:01:17.329Z,98087.51
2019-05-19T20:03:45.359Z,98088.23
2019-05-19T20:06:13.197Z,98082.80
2019-05-19T20:08:41.031Z,98090.94
2019-05-19T20:11:08.873Z,98089.70
2019-05-19T20:13:36.764Z,98098.81
2019-05-19T20:16:04.594Z,98096.04
2019-05-19T20:18:32.490Z,98102.67
2019-05-19T20:21:00.330Z,98099.59
2019-05-19T20:23:28.248Z,98105.58
2019-05-19T20:25:57.816Z,98106.34
2019-05-19T20:28:25.670Z,98113.56
2019-05-19T20:30:53.509Z,98116.80
2019-05-19T20:33:21.616Z,98123.78
2019-05-19T20:35:49.458Z,98126.39
2019-05-19T20:38:17.313Z,98125.84
2019-05-19T20:40:45.178Z,98128.73
2019-05-19T20:43:13.010Z,98130.16
2019-05-19T20:45:41.101Z,98129.98
2019-05-19T20:48:09.026Z,98143.91
2019-05-19T20:50:36.866Z,98130.70
2019-05-19T20:53:04.963Z,98137.56
2019-05-19T20:55:32.735Z,98134.51
2019-05-19T20:58:00.523Z,98141.37
2019-05-19T21:00:28.539Z,98140.97
2019-05-19T21:02:56.605Z,98155.52
2019-05-19T21:05:24.419Z,98156.64
2019-05-19T21:07:52.213Z,98153.92
2019-05-19T21:10:20.025Z,98153.65
2019-05-19T21:12:47.896Z,98156.85
2019-05-19T21:15:15.727Z,98156.00
2019-05-19T21:17:43.590Z,98162.27
2019-05-19T21:20:11.638Z,98154.98
2019-05-19T21:22:42.053Z,98163.78
2019-05-19T21:25:09.923Z,98158.98
2019-05-19T21:27:37.752Z,98162.07
2019-05-19T21:30:06.820Z,98165.61
2019-05-19T21:32:34.966Z,98165.61
2019-05-19T21:35:03.046Z,98161.36
2019-05-19T21:37:30.843Z,98166.77
2019-05-19T21:39:58.735Z,98166.44
2019-05-19T21:42:26.588Z,98167.31
2019-05-19T21:44:54.411Z,98169.41
2019-05-19T21:47:23.429Z,98165.58
2019-05-19T21:49:51.200Z,98174.98
2019-05-19T21:52:19.017Z,98183.25
2019-05-19T21:54:46.811Z,98183.05
2019-05-19T21:57:14.603Z,98187.02
2019-05-19T21:59:42.396Z,98188.72
2019-05-19T22:02:10.190Z,98190.61
2019-05-19T22:04:38.055Z,98184.86
2019-05-19T22:07:15.970Z,98188.56
2019-05-19T22:09:43.771Z,98189.94
2019-05-19T22:12:11.493Z,98184.17
2019-05-19T22:14:40.124Z,98181.34
2019-05-19T22:17:07.962Z,98183.39
2019-05-19T22:19:35.748Z,98176.35
2019-05-19T22:22:04.058Z,98175.27
2019-05-19T22:24:31.878Z,98175.59
2019-05-19T22:26:59.649Z,98175.80
2019-05-19T22:29:27.436Z,98173.74
2019-05-19T22:31:55.234Z,98170.30
2019-05-19T22:34:23.068Z,98173.36
2019-05-19T22:36:51.008Z,98171.75
2019-05-19T22:39:18.816Z,98172.00
2019-05-19T22:41:46.619Z,98166.96
2019-05-19T22:44:14.446Z,98164.84
2019-05-19T22:46:42.515Z,98159.98
2019-05-19T22:49:10.347Z,98163.41
2019-05-19T22:51:38.143Z,98157.03
2019-05-19T22:54:05.968Z,98147.31
2019-05-19T22:56:33.724Z,98115.52
2019-05-19T22:59:01.549Z,98146.05
2019-05-19T23:01:29.339Z,98147.78
2019-05-19T23:03:57.256Z,98144.59
2019-05-19T23:06:25.158Z,98145.52
2019-05-19T23:08:53.046Z,98149.47
2019-05-19T23:11:20.824Z,98145.45
2019-05-19T23:13:48.902Z,98148.74
2019-05-19T23:16:17.018Z,98145.08
2019-05-19T23:18:44.836Z,98144.92
2019-05-19T23:21:12.640Z,98141.66
2019-05-19T23:23:40.896Z,98139.45
2019-05-19T23:26:08.695Z,98137.88
2019-05-19T23:28:36.517Z,98147.11
2019-05-19T23:31:04.239Z,98139.81
2019-05-19T23:33:32.105Z,98139.08
2019-05-19T23:36:01.748Z,98135.83
2019-05-19T23:38:30.753Z,98138.52
2019-05-19T23:40:58.495Z,98134.95
2019-05-19T23:43:26.320Z,98135.77
2019-05-19T23:45:54.167Z,98133.97
2019-05-19T23:48:23.814Z,98135.25
2019-05-19T23:50:51.608Z,98121.27
2019-05-19T23:53:19.380Z,98121.47
2019-05-19T23:55:47.251Z,98115.08
2019-05-19T23:58:15.063Z,98115.78
